Time;durP1;ratioP1;P1;durP2;ratioP2;P2;SDS_P1;SDS_P2;PMS_P1;PMS_P2;Temp;Humidity;BMP_temperature;BMP_pressure;BME280_temperature;BME280_humidity;BME280_pressure;Samples;Min_cycle;Max_cycle;Signal;HPM_P1;HPM_P2
2023/08/13 00:00:50;;;;;;;;;;;;;;;24.78;100.00;98186.00;5076300;28;20337;-73
2023/08/13 00:03:17;;;;;;;;;;;;;;;24.75;100.00;98183.97;5077779;28;19935;-74
2023/08/13 00:05:43;;;;;;;;;;;;;;;24.85;100.00;98183.50;5080876;28;20331;-73
2023/08/13 00:08:09;;;;;;;;;;;;;;;24.84;100.00;98179.19;5076613;28;20044;-74
2023/08/13 00:10:36;;;;;;;;;;;;;;;24.81;100.00;98190.78;5078010;28;19928;-74
2023/08/13 00:13:04;;;;;;;;;;;;;;;24.83;100.00;98183.84;5077653;28;19962;-75
2023/08/13 00:15:30;;;;;;;;;;;;;;;24.73;100.00;98186.28;5074406;28;20015;-74
2023/08/13 00:17:56;;;;;;;;;;;;;;;24.61;100.00;98187.09;5077171;28;20027;-73
2023/08/13 00:20:23;;;;;;;;;;;;;;;24.61;100.00;98192.56;5077642;28;19932;-75
2023/08/13 00:22:49;;;;;;;;;;;;;;;24.49;100.00;98193.41;5077460;28;19928;-73
2023/08/13 00:25:15;;;;;;;;;;;;;;;24.52;100.00;98194.66;5062254;28;20019;-75
2023/08/13 00:27:42;;;;;;;;;;;;;;;24.54;100.00;98197.84;5079617;28;20043;-75
2023/08/13 00:30:10;;;;;;;;;;;;;;;24.48;100.00;98194.53;5076326;28;19968;-74
2023/08/13 00:32:37;;;;;;;;;;;;;;;24.55;100.00;98194.75;5080100;28;20407;-74
2023/08/13 00:35:03;;;;;;;;;;;;;;;24.60;100.00;98188.25;5078191;28;19928;-73
2023/08/13 00:37:29;;;;;;;;;;;;;;;24.56;100.00;98190.09;5078587;28;20378;-73
2023/08/13 00:39:56;;;;;;;;;;;;;;;24.56;100.00;98201.81;5082581;28;20584;-74
2023/08/13 00:42:22;;;;;;;;;;;;;;;24.49;100.00;98201.59;5076855;28;20018;-74
2023/08/13 00:44:48;;;;;;;;;;;;;;;24.42;100.00;98200.59;5084338;28;20007;-74
2023/08/13 00:47:16;;;;;;;;;;;;;;;24.49;100.00;98192.59;5078869;28;20035;-74
2023/08/13 00:49:43;;;;;;;;;;;;;;;24.57;100.00;98192.47;5057450;28;19935;-74
2023/08/13 00:52:09;;;;;;;;;;;;;;;24.63;100.00;98195.75;5081890;28;20015;-74
2023/08/13 00:54:35;;;;;;;;;;;;;;;24.66;100.00;98204.03;5079007;28;19932;-74
2023/08/13 00:57:03;;;;;;;;;;;;;;;24.65;100.00;98205.19;5078260;28;20424;-74
2023/08/13 00:59:31;;;;;;;;;;;;;;;24.65;100.00;98212.59;5082135;28;19928;-74
2023/08/13 01:01:57;;;;;;;;;;;;;;;24.66;100.00;98209.50;5078853;28;19931;-75
2023/08/13 01:04:25;;;;;;;;;;;;;;;24.58;100.00;98207.72;5082837;28;20546;-75
2023/08/13 01:06:59;;;;;;;;;;;;;;;24.64;100.00;98214.50;5066525;28;19959;-74
2023/08/13 01:09:33;;;;;;;;;;;;;;;24.56;100.00;98218.19;5082177;28;19967;-74
2023/08/13 01:12:00;;;;;;;;;;;;;;;24.49;100.00;98209.78;5079081;28;19931;-74
2023/08/13 01:14:30;;;;;;;;;;;;;;;24.51;100.00;98210.22;5083817;28;19930;-74
2023/08/13 01:16:59;;;;;;;;;;;;;;;24.55;100.00;98218.53;5082756;28;19928;-74
2023/08/13 01:19:27;;;;;;;;;;;;;;;24.55;100.00;98221.25;5083948;28;19974;-74
2023/08/13 01:21:53;;;;;;;;;;;;;;;24.56;100.00;98215.47;5083995;28;19928;-74
2023/08/13 01:24:21;;;;;;;;;;;;;;;24.56;100.00;98212.72;5083181;28;20505;-75
2023/08/13 01:26:50;;;;;;;;;;;;;;;24.57;100.00;98219.75;5084113;28;20022;-74
2023/08/13 01:29:19;;;;;;;;;;;;;;;24.53;100.00;98227.09;5082434;28;19946;-75
2023/08/13 01:31:49;;;;;;;;;;;;;;;24.51;100.00;98223.88;5084330;28;19969;-74
2023/08/13 01:34:17;;;;;;;;;;;;;;;24.55;100.00;98221.25;5078597;28;19970;-75
2023/08/13 01:36:43;;;;;;;;;;;;;;;24.54;100.00;98220.47;5084769;28;20023;-74
2023/08/13 01:39:10;;;;;;;;;;;;;;;24.55;100.00;98222.06;5087861;28;19932;-75
2023/08/13 01:41:51;;;;;;;;;;;;;;;24.61;100.00;98215.22;5086857;28;19967;-74
2023/08/13 01:44:17;;;;;;;;;;;;;;;24.22;100.00;98220.66;5087785;28;19924;-74
2023/08/13 01:46:44;;;;;;;;;;;;;;;24.10;100.00;98226.94;5087668;28;19928;-75
2023/08/13 01:49:10;;;;;;;;;;;;;;;23.80;100.00;98226.38;5086108;28;19928;-74
2023/08/13 01:51:36;;;;;;;;;;;;;;;23.47;100.00;98204.66;5082461;28;19928;-74
2023/08/13 01:54:03;;;;;;;;;;;;;;;23.32;100.00;98199.84;5084981;28;19931;-74
2023/08/13 01:56:29;;;;;;;;;;;;;;;23.40;100.00;98209.88;5087115;28;20374;-73
2023/08/13 01:58:57;;;;;;;;;;;;;;;23.81;100.00;98213.53;5084150;28;20011;-73
2023/08/13 02:01:23;;;;;;;;;;;;;;;23.97;100.00;98214.44;5086384;28;19954;-74
2023/08/13 02:03:49;;;;;;;;;;;;;;;24.08;100.00;98210.09;5083264;28;20485;-73
2023/08/13 02:06:16;;;;;;;;;;;;;;;24.10;100.00;98200.44;5085669;28;19946;-74
2023/08/13 02:08:42;;;;;;;;;;;;;;;23.72;100.00;98200.00;5082221;28;19928;-74
2023/08/13 02:11:09;;;;;;;;;;;;;;;23.88;100.00;98206.38;5087339;28;19932;-75
2023/08/13 02:13:35;;;;;;;;;;;;;;;24.00;100.00;98217.28;5087349;28;19967;-73
2023/08/13 02:16:03;;;;;;;;;;;;;;;24.01;100.00;98202.50;5079386;28;20471;-74
2023/08/13 02:18:30;;;;;;;;;;;;;;;23.96;100.00;98201.91;5086082;28;20335;-75
2023/08/13 02:20:56;;;;;;;;;;;;;;;24.02;100.00;98203.28;5078932;28;19928;-73
2023/08/13 02:23:23;;;;;;;;;;;;;;;24.07;100.00;98203.06;5085328;28;20022;-74
2023/08/13 02:25:50;;;;;;;;;;;;;;;24.10;100.00;98200.44;5081898;28;20027;-74
2023/08/13 02:28:16;;;;;;;;;;;;;;;24.11;100.00;98201.25;5084584;28;20054;-74
2023/08/13 02:30:42;;;;;;;;;;;;;;;24.13;100.00;98199.78;5086961;28;20371;-74
2023/08/13 02:33:10;;;;;;;;;;;;;;;24.07;100.00;98201.13;5083382;28;20046;-74
2023/08/13 02:35:36;;;;;;;;;;;;;;;23.98;100.00;98202.38;5086819;28;20410;-74
2023/08/13 02:38:03;;;;;;;;;;;;;;;23.85;100.00;98214.44;5082714;28;19930;-74
2023/08/13 02:40:29;;;;;;;;;;;;;;;23.87;100.00;98203.97;5085065;28;19924;-73
2023/08/13 02:42:56;;;;;;;;;;;;;;;23.97;100.00;98201.59;5081828;28;20019;-74
2023/08/13 02:45:22;;;;;;;;;;;;;;;24.05;100.00;98199.84;5084078;28;20021;-74
2023/08/13 02:47:48;;;;;;;;;;;;;;;23.95;100.00;98205.81;5084673;28;19928;-74
2023/08/13 02:50:16;;;;;;;;;;;;;;;23.95;100.00;98197.63;5086130;28;20030;-75
2023/08/13 02:52:42;;;;;;;;;;;;;;;23.94;100.00;98202.28;5080043;28;19924;-74
2023/08/13 02:55:09;;;;;;;;;;;;;;;23.91;100.00;98199.44;5067376;28;19971;-74
2023/08/13 02:57:35;;;;;;;;;;;;;;;23.92;100.00;98203.75;5085855;28;20018;-74
2023/08/13 03:00:02;;;;;;;;;;;;;;;23.97;100.00;98198.84;5083035;28;19930;-74
2023/08/13 03:02:28;;;;;;;;;;;;;;;23.94;100.00;98207.72;5086306;28;19959;-74
2023/08/13 03:04:55;;;;;;;;;;;;;;;23.90;100.00;98200.56;5083149;28;19985;-74
2023/08/13 03:07:22;;;;;;;;;;;;;;;23.84;100.00;98212.84;5084982;28;19928;-75
2023/08/13 03:09:49;;;;;;;;;;;;;;;23.77;100.00;98212.63;5083831;28;20022;-74
2023/08/13 03:12:15;;;;;;;;;;;;;;;23.81;100.00;98210.81;5082412;28;19928;-73
2023/08/13 03:14:42;;;;;;;;;;;;;;;23.84;100.00;98204.66;5084727;28;19928;-74
2023/08/13 03:17:08;;;;;;;;;;;;;;;23.85;100.00;98204.34;5081448;28;19928;-74
2023/08/13 03:19:34;;;;;;;;;;;;;;;23.85;100.00;98211.72;5085784;28;19928;-74
2023/08/13 03:22:01;;;;;;;;;;;;;;;23.85;100.00;98214.44;5082522;28;19928;-74
2023/08/13 03:24:29;;;;;;;;;;;;;;;23.84;100.00;98207.38;5084994;28;19935;-74
2023/08/13 03:26:55;;;;;;;;;;;;;;;23.68;100.00;98218.19;5082613;28;19924;-74
2023/08/13 03:29:21;;;;;;;;;;;;;;;23.39;100.00;98213.75;5082936;28;20009;-74
2023/08/13 03:31:47;;;;;;;;;;;;;;;23.38;100.00;98208.59;5083764;28;19950;-74
2023/08/13 03:34:14;;;;;;;;;;;;;;;23.45;100.00;98212.41;5082583;28;19928;-73
2023/08/13 03:36:40;;;;;;;;;;;;;;;23.51;100.00;98216.50;5085670;28;20015;-74
2023/08/13 03:39:07;;;;;;;;;;;;;;;23.59;100.00;98212.84;5063588;28;19934;-74
2023/08/13 03:41:34;;;;;;;;;;;;;;;23.67;100.00;98226.72;5084915;28;19938;-74
2023/08/13 03:44:01;;;;;;;;;;;;;;;23.55;100.00;98219.34;5081612;28;20023;-74
2023/08/13 03:46:27;;;;;;;;;;;;;;;23.42;100.00;98223.97;5085118;28;19924;-74
2023/08/13 03:48:53;;;;;;;;;;;;;;;23.45;100.00;98219.78;5083742;28;19924;-74
2023/08/13 03:51:20;;;;;;;;;;;;;;;23.51;100.00;98221.16;5080458;28;19928;-74
2023/08/13 03:53:46;;;;;;;;;;;;;;;23.56;100.00;98213.53;5082712;28;20026;-73
2023/08/13 03:56:12;;;;;;;;;;;;;;;23.33;100.00;98208.84;5085441;28;19930;-74
2023/08/13 03:58:40;;;;;;;;;;;;;;;22.78;100.00;98212.75;5079263;28;19932;-74
2023/08/13 04:01:07;;;;;;;;;;;;;;;22.65;100.00;98227.47;5066118;28;19975;-74
2023/08/13 04:03:33;;;;;;;;;;;;;;;23.11;100.00;98218.22;5081001;28;20019;-74
2023/08/13 04:06:00;;;;;;;;;;;;;;;23.25;100.00;98223.34;5083615;28;20019;-75
2023/08/13 04:08:26;;;;;;;;;;;;;;;23.32;100.00;98224.38;5079763;28;19974;-73
2023/08/13 04:10:53;;;;;;;;;;;;;;;23.27;100.00;98216.44;5066833;28;20019;-75
2023/08/13 04:13:19;;;;;;;;;;;;;;;22.87;100.00;98212.69;5084774;28;20414;-75
2023/08/13 04:15:47;;;;;;;;;;;;;;;22.92;100.00;98215.19;5076829;28;20387;-74
2023/08/13 04:18:13;;;;;;;;;;;;;;;23.12;100.00;98217.84;5084059;28;20387;-73
2023/08/13 04:20:40;;;;;;;;;;;;;;;23.29;100.00;98219.59;5080500;28;20314;-73
2023/08/13 04:23:06;;;;;;;;;;;;;;;23.35;100.00;98218.25;5083028;28;20038;-73
2023/08/13 04:25:33;;;;;;;;;;;;;;;23.44;100.00;98227.16;5079446;28;19932;-74
2023/08/13 04:27:59;;;;;;;;;;;;;;;23.33;100.00;98212.34;5082092;28;19932;-73
2023/08/13 04:30:25;;;;;;;;;;;;;;;23.34;100.00;98221.31;5084490;28;20618;-73
2023/08/13 04:32:54;;;;;;;;;;;;;;;23.36;100.00;98224.50;5081154;28;19977;-72
2023/08/13 04:35:21;;;;;;;;;;;;;;;23.38;100.00;98219.50;5083437;28;20018;-73
2023/08/13 04:37:47;;;;;;;;;;;;;;;23.27;100.00;98230.06;5080562;28;19971;-73
2023/08/13 04:40:14;;;;;;;;;;;;;;;23.34;100.00;98224.81;5082975;28;19924;-74
2023/08/13 04:42:41;;;;;;;;;;;;;;;23.42;100.00;98228.63;5079510;28;20089;-73
2023/08/13 04:45:07;;;;;;;;;;;;;;;23.46;100.00;98227.59;5063702;28;19974;-74
2023/08/13 04:47:34;;;;;;;;;;;;;;;23.40;100.00;98220.78;5084254;28;19931;-74
2023/08/13 04:50:01;;;;;;;;;;;;;;;23.37;100.00;98209.72;5083665;28;19928;-74
2023/08/13 04:52:28;;;;;;;;;;;;;;;23.34;100.00;98224.81;5079451;28;20032;-74
2023/08/13 04:54:54;;;;;;;;;;;;;;;23.32;100.00;98213.47;5081928;28;20014;-74
2023/08/13 04:57:21;;;;;;;;;;;;;;;23.50;100.00;98214.09;5084512;28;19981;-73
2023/08/13 04:59:47;;;;;;;;;;;;;;;23.13;100.00;98214.00;5080185;28;19928;-74
2023/08/13 05:02:13;;;;;;;;;;;;;;;23.01;100.00;98216.72;5084477;28;19924;-74
2023/08/13 05:04:40;;;;;;;;;;;;;;;22.99;100.00;98221.69;5078912;28;19932;-73
2023/08/13 05:07:07;;;;;;;;;;;;;;;23.07;100.00;98222.72;5083796;28;19924;-73
2023/08/13 05:09:34;;;;;;;;;;;;;;;22.98;100.00;98231.00;5079246;28;19935;-74
2023/08/13 05:12:01;;;;;;;;;;;;;;;22.82;100.00;98234.69;5085637;28;19924;-74
2023/08/13 05:14:27;;;;;;;;;;;;;;;22.92;100.00;98237.00;5088542;28;19924;-74
2023/08/13 05:16:54;;;;;;;;;;;;;;;23.09;100.00;98239.53;5079256;28;20041;-74
2023/08/13 05:19:21;;;;;;;;;;;;;;;23.25;100.00;98240.47;5088563;28;19927;-73
2023/08/13 05:21:47;;;;;;;;;;;;;;;23.35;100.00;98237.34;5064120;28;19942;-74
2023/08/13 05:24:15;;;;;;;;;;;;;;;23.30;100.00;98232.09;5070164;28;19947;-74
2023/08/13 05:26:41;;;;;;;;;;;;;;;23.25;100.00;98229.59;5063675;28;20007;-74
2023/08/13 05:29:07;;;;;;;;;;;;;;;22.95;100.00;98226.22;5087001;28;19928;-73
2023/08/13 05:31:34;;;;;;;;;;;;;;;22.66;100.00;98230.97;5088091;28;19947;-74
2023/08/13 05:34:00;;;;;;;;;;;;;;;22.57;100.00;98228.31;5084997;28;19985;-73
2023/08/13 05:36:27;;;;;;;;;;;;;;;22.30;100.00;98231.56;5088066;28;19935;-73
2023/08/13 05:38:53;;;;;;;;;;;;;;;22.16;100.00;98231.03;5081792;28;20043;-73
2023/08/13 05:41:21;;;;;;;;;;;;;;;21.90;100.00;98220.31;5088104;28;20365;-73
2023/08/13 05:43:47;;;;;;;;;;;;;;;22.03;100.00;98222.00;5080865;28;19924;-73
2023/08/13 05:46:14;;;;;;;;;;;;;;;22.41;100.00;98235.47;5087079;28;20279;-73
2023/08/13 05:48:41;;;;;;;;;;;;;;;22.81;100.00;98230.38;5086298;28;20474;-74
2023/08/13 05:51:07;;;;;;;;;;;;;;;22.70;100.00;98224.53;5064563;28;19928;-73
2023/08/13 05:53:34;;;;;;;;;;;;;;;22.78;100.00;98229.09;5081908;28;19927;-73
2023/08/13 05:56:00;;;;;;;;;;;;;;;22.45;100.00;98225.53;5083589;28;19928;-73
2023/08/13 05:58:28;;;;;;;;;;;;;;;22.62;100.00;98227.31;5082332;28;19925;-74
2023/08/13 06:00:56;;;;;;;;;;;;;;;22.62;100.00;98222.66;5086817;28;20014;-74
2023/08/13 06:03:22;;;;;;;;;;;;;;;22.73;100.00;98212.19;5083492;28;19997;-73
2023/08/13 06:05:49;;;;;;;;;;;;;;;22.59;100.00;98218.66;5085913;28;20792;-73
2023/08/13 06:08:15;;;;;;;;;;;;;;;22.80;100.00;98217.88;5082262;28;19925;-73
2023/08/13 06:10:42;;;;;;;;;;;;;;;22.53;100.00;98224.66;5084959;28;19924;-74
2023/08/13 06:13:08;;;;;;;;;;;;;;;22.40;100.00;98231.97;5087402;28;19935;-73
2023/08/13 06:15:36;;;;;;;;;;;;;;;22.29;100.00;98230.75;5060880;28;20532;-74
2023/08/13 06:18:02;;;;;;;;;;;;;;;22.42;100.00;98227.00;5086737;28;19924;-74
2023/08/13 06:20:30;;;;;;;;;;;;;;;22.55;100.00;98234.09;5082828;28;19968;-74
2023/08/13 06:22:57;;;;;;;;;;;;;;;22.90;100.00;98218.25;5084774;28;19924;-74
2023/08/13 06:25:23;;;;;;;;;;;;;;;22.85;100.00;98225.84;5081337;28;20028;-74
2023/08/13 06:27:49;;;;;;;;;;;;;;;22.77;100.00;98232.97;5068595;28;20507;-74
2023/08/13 06:30:16;;;;;;;;;;;;;;;22.97;100.00;98234.03;5068605;28;19976;-74
2023/08/13 06:32:44;;;;;;;;;;;;;;;23.07;100.00;98239.09;5083641;28;19924;-75
2023/08/13 06:35:10;;;;;;;;;;;;;;;23.09;100.00;98247.69;5086720;28;19928;-74
2023/08/13 06:37:37;;;;;;;;;;;;;;;23.34;100.00;98237.66;5082565;28;19981;-73
2023/08/13 06:40:03;;;;;;;;;;;;;;;23.43;100.00;98249.28;5085262;28;19924;-74
2023/08/13 06:42:30;;;;;;;;;;;;;;;23.62;100.00;98233.97;5081547;28;19963;-74
2023/08/13 06:44:56;;;;;;;;;;;;;;;23.71;100.00;98238.50;5084019;28;19938;-73
2023/08/13 06:47:22;;;;;;;;;;;;;;;23.78;100.00;98236.81;5082555;28;19954;-73
2023/08/13 06:49:50;;;;;;;;;;;;;;;23.84;100.00;98229.22;5084890;28;20302;-74
2023/08/13 06:52:17;;;;;;;;;;;;;;;23.56;100.00;98224.44;5081632;28;19928;-74
2023/08/13 06:54:43;;;;;;;;;;;;;;;23.02;100.00;98231.94;5084123;28;19928;-74
2023/08/13 06:57:09;;;;;;;;;;;;;;;22.80;100.00;98239.69;5080342;28;19928;-74
2023/08/13 06:59:36;;;;;;;;;;;;;;;22.86;100.00;98227.44;5085942;28;19935;-74
2023/08/13 07:02:04;;;;;;;;;;;;;;;23.09;100.00;98234.88;5082459;28;20011;-74
2023/08/13 07:04:31;;;;;;;;;;;;;;;23.36;100.00;98225.31;5084749;28;19928;-74
2023/08/13 07:06:59;;;;;;;;;;;;;;;23.50;100.00;98233.97;5057671;28;20035;-74
2023/08/13 07:09:27;;;;;;;;;;;;;;;23.76;100.00;98232.84;5082670;28;19975;-73
2023/08/13 07:11:54;;;;;;;;;;;;;;;23.83;100.00;98238.56;5083407;28;19928;-74
2023/08/13 07:14:20;;;;;;;;;;;;;;;24.03;100.00;98243.88;5080187;28;19927;-73
2023/08/13 07:16:47;;;;;;;;;;;;;;;23.90;100.00;98233.28;5086281;28;19928;-74
2023/08/13 07:19:13;;;;;;;;;;;;;;;23.84;100.00;98232.72;5081774;28;20326;-74
2023/08/13 07:21:40;;;;;;;;;;;;;;;24.09;100.00;98237.03;5084619;28;20401;-73
2023/08/13 07:24:08;;;;;;;;;;;;;;;24.21;100.00;98238.97;5081345;28;20029;-73
2023/08/13 07:26:35;;;;;;;;;;;;;;;24.36;100.00;98251.13;5062278;28;19924;-74
2023/08/13 07:29:02;;;;;;;;;;;;;;;24.38;100.00;98257.84;5063902;28;19932;-74
2023/08/13 07:31:29;;;;;;;;;;;;;;;24.16;100.00;98248.22;5063209;28;19932;-74
2023/08/13 07:33:55;;;;;;;;;;;;;;;24.40;100.00;98244.63;5084426;28;20055;-74
2023/08/13 07:36:22;;;;;;;;;;;;;;;24.22;100.00;98246.03;5079464;28;19982;-74
2023/08/13 07:38:48;;;;;;;;;;;;;;;23.96;100.00;98237.38;5061956;28;19997;-73
2023/08/13 07:41:16;;;;;;;;;;;;;;;23.94;100.00;98220.56;5079929;28;19928;-73
2023/08/13 07:43:42;;;;;;;;;;;;;;;24.08;100.00;98221.00;5080880;28;19932;-74
2023/08/13 07:46:09;;;;;;;;;;;;;;;23.92;100.00;98220.91;5085483;28;20030;-74
2023/08/13 07:48:35;;;;;;;;;;;;;;;23.67;100.00;98214.66;5076668;28;19929;-74
2023/08/13 07:51:01;;;;;;;;;;;;;;;23.60;100.00;98213.66;5081526;28;19924;-74
2023/08/13 07:53:29;;;;;;;;;;;;;;;23.54;100.00;98225.91;5082274;28;19928;-75
2023/08/13 07:55:55;;;;;;;;;;;;;;;23.34;100.00;98221.31;5081859;28;19924;-73
2023/08/13 07:58:23;;;;;;;;;;;;;;;23.12;100.00;98217.06;5079345;28;19924;-74
2023/08/13 08:00:49;;;;;;;;;;;;;;;23.16;100.00;98222.63;5084434;28;19928;-75
2023/08/13 08:03:15;;;;;;;;;;;;;;;23.23;100.00;98220.97;5080937;28;19924;-74
2023/08/13 08:05:42;;;;;;;;;;;;;;;23.21;100.00;98206.09;5083547;28;19930;-74
2023/08/13 08:08:08;;;;;;;;;;;;;;;23.09;100.00;98217.72;5079981;28;20023;-73
2023/08/13 08:10:35;;;;;;;;;;;;;;;23.00;100.00;98227.94;5080525;28;19928;-74
2023/08/13 08:13:01;;;;;;;;;;;;;;;23.03;100.00;98232.69;5085328;28;20014;-74
2023/08/13 08:15:29;;;;;;;;;;;;;;;23.04;100.00;98234.31;5077317;28;20579;-73
2023/08/13 08:17:55;;;;;;;;;;;;;;;23.16;100.00;98226.16;5083801;28;20007;-73
2023/08/13 08:20:22;;;;;;;;;;;;;;;23.26;100.00;98225.75;5080422;28;19928;-74
2023/08/13 08:22:48;;;;;;;;;;;;;;;23.25;100.00;98226.84;5083286;28;20704;-73
2023/08/13 08:25:14;;;;;;;;;;;;;;;23.29;100.00;98230.50;5082097;28;19928;-74
2023/08/13 08:27:41;;;;;;;;;;;;;;;23.29;100.00;98225.06;5072320;28;19928;-72
2023/08/13 08:30:08;;;;;;;;;;;;;;;23.29;100.00;98235.97;5081541;28;19928;-74
2023/08/13 08:32:36;;;;;;;;;;;;;;;23.62;100.00;98233.97;5082721;28;19934;-73
2023/08/13 08:35:03;;;;;;;;;;;;;;;23.85;100.00;98234.34;5081688;28;19927;-73
2023/08/13 08:37:31;;;;;;;;;;;;;;;24.05;100.00;98238.06;5083220;28;19950;-73
2023/08/13 08:39:57;;;;;;;;;;;;;;;24.15;100.00;98246.63;5083285;28;19974;-73
2023/08/13 08:42:24;;;;;;;;;;;;;;;24.25;100.00;98244.53;5082428;28;19971;-74
2023/08/13 08:44:51;;;;;;;;;;;;;;;24.30;100.00;98242.38;5084880;28;19963;-73
2023/08/13 08:47:17;;;;;;;;;;;;;;;24.26;100.00;98246.16;5084218;28;19935;-73
2023/08/13 08:49:46;;;;;;;;;;;;;;;24.24;100.00;98248.41;5083279;28;19928;-73
2023/08/13 08:52:13;;;;;;;;;;;;;;;24.20;100.00;98239.34;5062056;28;19928;-73
2023/08/13 08:54:39;;;;;;;;;;;;;;;24.18;100.00;98245.13;5082140;28;20487;-73
2023/08/13 08:57:06;;;;;;;;;;;;;;;24.09;100.00;98236.25;5079093;28;19928;-74
2023/08/13 08:59:33;;;;;;;;;;;;;;;23.97;100.00;98238.97;5081468;28;20030;-74
2023/08/13 09:01:59;;;;;;;;;;;;;;;24.02;100.00;98233.28;5084098;28;20290;-73
2023/08/13 09:04:25;;;;;;;;;;;;;;;24.11;100.00;98240.25;5062595;28;19928;-74
2023/08/13 09:06:57;;;;;;;;;;;;;;;24.17;100.00;98241.59;5082961;28;19934;-73
2023/08/13 09:09:24;;;;;;;;;;;;;;;24.15;100.00;98235.69;5079456;28;19932;-73
2023/08/13 09:11:50;;;;;;;;;;;;;;;24.18;100.00;98229.56;5082038;28;19927;-73
2023/08/13 09:14:17;;;;;;;;;;;;;;;24.24;100.00;98218.38;5078655;28;19924;-74
2023/08/13 09:16:44;;;;;;;;;;;;;;;24.18;100.00;98218.63;5075369;28;20002;-73
2023/08/13 09:19:11;;;;;;;;;;;;;;;23.98;100.00;98207.84;5084257;28;19928;-73
2023/08/13 09:21:37;;;;;;;;;;;;;;;23.85;100.00;98212.50;5079595;28;19928;-74
2023/08/13 09:24:06;;;;;;;;;;;;;;;23.76;100.00;98203.66;5083544;28;20309;-74
2023/08/13 09:26:32;;;;;;;;;;;;;;;23.73;100.00;98211.72;5079260;28;19928;-74
2023/08/13 09:28:59;;;;;;;;;;;;;;;23.71;100.00;98213.97;5081864;28;19930;-74
2023/08/13 09:31:26;;;;;;;;;;;;;;;23.82;100.00;98212.41;5084494;28;19924;-74
2023/08/13 09:33:52;;;;;;;;;;;;;;;24.06;100.00;98215.09;5080559;28;19925;-73
2023/08/13 09:36:18;;;;;;;;;;;;;;;24.34;100.00;98215.97;5084341;28;19928;-73
2023/08/13 09:38:45;;;;;;;;;;;;;;;24.42;100.00;98209.56;5078471;28;19924;-73
2023/08/13 09:41:14;;;;;;;;;;;;;;;24.49;100.00;98217.19;5077909;28;19990;-74
2023/08/13 09:43:40;;;;;;;;;;;;;;;24.61;100.00;98208.94;5077893;28;20374;-74
2023/08/13 09:46:07;;;;;;;;;;;;;;;24.30;100.00;98212.34;5082683;28;19932;-73
2023/08/13 09:48:33;;;;;;;;;;;;;;;24.22;100.00;98220.66;5082550;28;20032;-74
2023/08/13 09:51:02;;;;;;;;;;;;;;;24.25;100.00;98218.06;5080580;28;19928;-74
2023/08/13 09:53:29;;;;;;;;;;;;;;;24.27;100.00;98223.94;5081129;28;19924;-74
2023/08/13 09:55:56;;;;;;;;;;;;;;;24.31;100.00;98211.22;5080936;28;20330;-74
2023/08/13 09:58:24;;;;;;;;;;;;;;;24.26;100.00;98216.94;5080244;28;20022;-73
2023/08/13 10:00:50;;;;;;;;;;;;;;;24.37;100.00;98207.09;5087151;28;19935;-73
2023/08/13 10:03:17;;;;;;;;;;;;;;;24.28;100.00;98205.66;5083882;28;20027;-74
2023/08/13 10:05:44;;;;;;;;;;;;;;;24.40;100.00;98198.22;5069787;28;19928;-73
2023/08/13 10:08:10;;;;;;;;;;;;;;;24.26;100.00;98195.09;5082914;28;20474;-73
2023/08/13 10:10:37;;;;;;;;;;;;;;;24.23;100.00;98198.50;5087394;28;20024;-73
2023/08/13 10:13:04;;;;;;;;;;;;;;;24.35;100.00;98195.75;5083597;28;19925;-73
2023/08/13 10:15:32;;;;;;;;;;;;;;;24.36;100.00;98197.31;5078618;28;19928;-76
2023/08/13 10:17:59;;;;;;;;;;;;;;;24.34;100.00;98188.69;5079389;28;19960;-73
2023/08/13 10:20:26;;;;;;;;;;;;;;;24.35;100.00;98186.75;5081996;28;19964;-74
2023/08/13 10:22:53;;;;;;;;;;;;;;;24.43;100.00;98183.06;5086220;28;19931;-74
2023/08/13 10:25:26;;;;;;;;;;;;;;;24.41;100.00;98183.44;5082385;28;19932;-74
2023/08/13 10:27:53;;;;;;;;;;;;;;;24.39;100.00;98196.63;5084941;28;20043;-74
2023/08/13 10:30:20;;;;;;;;;;;;;;;24.41;100.00;98182.63;5069064;28;19924;-73
2023/08/13 10:32:50;;;;;;;;;;;;;;;24.54;100.00;98187.69;5084128;28;19942;-73
2023/08/13 10:35:23;;;;;;;;;;;;;;;24.53;100.00;98179.88;5086410;28;19928;-74
2023/08/13 10:37:50;;;;;;;;;;;;;;;24.58;100.00;98177.66;5081855;28;19979;-73
2023/08/13 10:40:18;;;;;;;;;;;;;;;24.59;100.00;98179.28;5085480;28;20422;-73
2023/08/13 10:42:48;;;;;;;;;;;;;;;24.66;100.00;98178.69;5064161;28;20026;-74
2023/08/13 10:45:16;;;;;;;;;;;;;;;24.71;100.00;98173.75;5081762;28;20001;-75
2023/08/13 10:47:45;;;;;;;;;;;;;;;24.64;100.00;98175.47;5085127;28;19943;-73
2023/08/13 10:50:16;;;;;;;;;;;;;;;24.50;100.00;98173.16;5082630;28;19927;-74
2023/08/13 10:52:43;;;;;;;;;;;;;;;24.48;100.00;98172.69;5085120;28;19928;-74
2023/08/13 10:55:10;;;;;;;;;;;;;;;24.50;100.00;98177.81;5063420;28;20022;-74
2023/08/13 10:57:36;;;;;;;;;;;;;;;24.44;100.00;98177.28;5083458;28;19955;-75
2023/08/13 11:00:03;;;;;;;;;;;;;;;24.60;100.00;98180.84;5086795;28;19931;-73
2023/08/13 11:02:30;;;;;;;;;;;;;;;24.61;100.00;98184.38;5083008;28;19936;-73
2023/08/13 11:04:57;;;;;;;;;;;;;;;24.72;100.00;98182.75;5085510;28;20111;-73
2023/08/13 11:07:25;;;;;;;;;;;;;;;24.81;100.00;98186.16;5082180;28;19928;-74
2023/08/13 11:09:52;;;;;;;;;;;;;;;24.87;100.00;98183.94;5065522;28;20508;-74
2023/08/13 11:12:18;;;;;;;;;;;;;;;24.97;100.00;98172.50;5063012;28;19928;-74
2023/08/13 11:14:45;;;;;;;;;;;;;;;24.92;100.00;98175.47;5083498;28;19954;-73
2023/08/13 11:17:11;;;;;;;;;;;;;;;25.06;100.00;98181.34;5063388;28;20331;-73
2023/08/13 11:19:37;;;;;;;;;;;;;;;25.06;100.00;98173.13;5082054;28;20006;-74
2023/08/13 11:22:04;;;;;;;;;;;;;;;25.15;100.00;98173.75;5067961;28;19975;-73
2023/08/13 11:24:33;;;;;;;;;;;;;;;25.32;100.00;98167.94;5081931;28;20006;-73
2023/08/13 11:26:59;;;;;;;;;;;;;;;25.16;100.00;98169.91;5084507;28;19928;-73
2023/08/13 11:29:25;;;;;;;;;;;;;;;25.37;100.00;98164.97;5080943;28;19935;-73
2023/08/13 11:31:52;;;;;;;;;;;;;;;25.53;100.00;98170.44;5064533;28;20036;-74
2023/08/13 11:34:17;;;;;;;;;;;;;;;25.57;100.00;98163.09;5085844;28;19954;-74
2023/08/13 11:36:44;;;;;;;;;;;;;;;25.69;100.00;98149.31;5063335;28;20413;-73
2023/08/13 11:39:11;;;;;;;;;;;;;;;25.49;100.00;98144.94;5086194;28;20030;-73
2023/08/13 11:41:38;;;;;;;;;;;;;;;25.58;100.00;98148.28;5080944;28;20030;-74
2023/08/13 11:44:07;;;;;;;;;;;;;;;25.73;100.00;98145.53;5083925;28;20034;-72
2023/08/13 11:46:52;;;;;;;;;;;;;;;26.01;100.00;98137.16;5080093;28;19963;-74
2023/08/13 11:49:19;;;;;;;;;;;;;;;26.16;100.00;98135.53;5075635;28;19996;-73
2023/08/13 11:51:46;;;;;;;;;;;;;;;26.08;100.00;98133.78;5080850;28;19928;-73
2023/08/13 11:54:12;;;;;;;;;;;;;;;26.07;100.00;98132.97;5061830;28;19979;-74
2023/08/13 11:56:40;;;;;;;;;;;;;;;26.18;100.00;98122.28;5081697;28;20461;-73
2023/08/13 11:59:06;;;;;;;;;;;;;;;26.19;100.00;98119.19;5085544;28;19924;-73
2023/08/13 12:01:34;;;;;;;;;;;;;;;26.19;100.00;98124.66;5085254;28;19928;-74
2023/08/13 12:04:03;;;;;;;;;;;;;;;26.22;100.00;98123.16;5076806;28;19984;-73
2023/08/13 12:06:29;;;;;;;;;;;;;;;26.21;100.00;98121.56;5075851;28;20387;-73
2023/08/13 12:08:56;;;;;;;;;;;;;;;26.25;100.00;98115.00;5083617;28;19928;-72
2023/08/13 12:11:22;;;;;;;;;;;;;;;25.96;100.00;98117.50;5057429;28;19962;-73
2023/08/13 12:13:50;;;;;;;;;;;;;;;26.00;100.00;98115.59;5084126;28;19924;-73
2023/08/13 12:16:16;;;;;;;;;;;;;;;26.13;100.00;98122.53;5081218;28;19928;-75
2023/08/13 12:18:43;;;;;;;;;;;;;;;26.16;100.00;98124.59;5067148;28;19924;-74
2023/08/13 12:21:09;;;;;;;;;;;;;;;26.32;100.00;98116.31;5085288;28;20039;-74
2023/08/13 12:23:36;;;;;;;;;;;;;;;26.39;100.00;98116.44;5065223;28;19924;-74
2023/08/13 12:26:02;;;;;;;;;;;;;;;26.55;100.00;98117.16;5066820;28;19928;-73
2023/08/13 12:28:29;;;;;;;;;;;;;;;26.60;100.00;98125.06;5079205;28;20621;-75
2023/08/13 12:30:56;;;;;;;;;;;;;;;26.31;100.00;98115.50;5082030;28;19924;-74
2023/08/13 12:33:23;;;;;;;;;;;;;;;26.30;100.00;98097.50;5085748;28;19935;-75